Time;durP1;ratioP1;P1;durP2;ratioP2;P2;SDS_P1;SDS_P2;PMS_P1;PMS_P2;Temp;Humidity;BMP_temperature;BMP_pressure;BME280_temperature;BME280_humidity;BME280_pressure;Samples;Min_cycle;Max_cycle;Signal;HPM_P1;HPM_P2
2021/12/24 00:00:02;;;;;;;48.30;21.15;;;;;;;-5.95;100.00;98544.88;5154043;27;20050;-62
2021/12/24 00:02:28;;;;;;;55.30;25.05;;;;;;;-5.94;100.00;98535.00;5153649;27;20421;-62
2021/12/24 00:04:54;;;;;;;48.75;21.73;;;;;;;-5.96;100.00;98534.50;5153875;27;20051;-61
2021/12/24 00:07:21;;;;;;;43.10;19.48;;;;;;;-6.08;100.00;98531.31;5153589;27;20051;-61
2021/12/24 00:09:48;;;;;;;48.88;22.75;;;;;;;-5.91;100.00;98524.53;5153752;27;20476;-61
2021/12/24 00:12:18;;;;;;;48.65;22.38;;;;;;;-5.72;100.00;98522.06;5153013;27;20053;-61
2021/12/24 00:14:49;;;;;;;53.50;21.45;;;;;;;-5.78;100.00;98517.81;5153518;27;20572;-61
2021/12/24 00:17:20;;;;;;;47.75;21.23;;;;;;;-5.87;100.00;98516.78;5153341;27;20517;-62
2021/12/24 00:20:00;;;;;;;49.22;21.98;;;;;;;-5.98;100.00;98507.25;5153133;27;20047;-61
2021/12/24 00:22:59;;;;;;;50.53;21.38;;;;;;;-5.91;100.00;98507.72;5153297;27;20077;-61
2021/12/24 00:36:28;;;;;;;60.97;24.45;;;;;;;-5.94;100.00;98481.63;5142965;27;20046;-61
2021/12/24 00:38:54;;;;;;;50.80;21.70;;;;;;;-6.04;100.00;98482.44;5152944;27;20102;-61
2021/12/24 00:41:21;;;;;;;55.20;22.85;;;;;;;-6.04;100.00;98471.78;5153256;27;20527;-62
2021/12/24 00:43:47;;;;;;;52.65;24.38;;;;;;;-6.02;100.00;98474.19;5153128;27;20409;-62
2021/12/24 00:46:13;;;;;;;45.47;21.45;;;;;;;-6.11;100.00;98467.81;5152918;27;20050;-61
2021/12/24 00:48:40;;;;;;;51.08;21.77;;;;;;;-6.21;100.00;98460.66;5152884;27;20633;-62
2021/12/24 00:51:20;;;;;;;53.67;21.65;;;;;;;-6.20;100.00;98446.22;5152735;27;20047;-61
2021/12/24 00:56:31;;;;;;;57.58;22.83;;;;;;;-6.09;100.00;98439.78;5152796;27;20089;-61
2021/12/24 00:58:58;;;;;;;47.40;20.98;;;;;;;-6.18;100.00;98431.56;5153084;27;20458;-62
2021/12/24 01:01:24;;;;;;;55.08;23.55;;;;;;;-6.16;100.00;98433.97;5152723;27;20050;-61
2021/12/24 01:03:50;;;;;;;52.85;21.92;;;;;;;-6.17;100.00;98427.81;5152863;27;20141;-62
2021/12/24 01:06:16;;;;;;;60.15;24.52;;;;;;;-6.15;100.00;98419.53;5152835;27;20134;-62
2021/12/24 01:08:43;;;;;;;44.75;21.15;;;;;;;-6.23;100.00;98406.75;5152646;27;20137;-61
2021/12/24 01:11:10;;;;;;;57.17;23.65;;;;;;;-6.22;100.00;98411.84;5152592;27;20441;-62
2021/12/24 01:13:37;;;;;;;57.17;22.38;;;;;;;-6.22;100.00;98411.03;5152486;27;20190;-61
2021/12/24 01:16:11;;;;;;;56.72;21.45;;;;;;;-6.19;100.00;98400.63;5152518;27;20043;-61
2021/12/24 01:18:46;;;;;;;40.97;18.90;;;;;;;-6.29;100.00;98400.66;5152336;27;20148;-61
2021/12/24 01:21:25;;;;;;;50.42;21.30;;;;;;;-6.20;100.00;98401.69;5152527;27;20082;-61
2021/12/24 01:23:55;;;;;;;42.53;18.00;;;;;;;-6.23;100.00;98402.25;5152373;27;20138;-61
2021/12/24 01:26:33;;;;;;;49.05;18.75;;;;;;;-6.29;100.00;98386.53;5152599;27;20156;-61
2021/12/24 01:29:19;;;;;;;52.80;22.23;;;;;;;-6.27;100.00;98385.16;5152222;27;20051;-62
2021/12/24 01:40:18;;;;;;;;;;;;;;;-6.31;100.00;98365.44;5152921;27;20144;-61
2021/12/24 01:42:46;;;;;;;42.83;17.70;;;;;;;-6.40;100.00;98353.75;5152113;27;19967;-61
2021/12/24 01:45:20;;;;;;;41.80;18.05;;;;;;;-6.33;100.00;98343.59;5152210;27;20390;-61
2021/12/24 01:47:47;;;;;;;44.67;17.92;;;;;;;-6.32;100.00;98345.19;5152664;27;20572;-61
2021/12/24 01:50:14;;;;;;;58.85;23.63;;;;;;;-6.36;100.00;98338.00;5152302;27;20654;-61
2021/12/24 01:52:40;;;;;;;46.30;18.73;;;;;;;-6.40;100.00;98335.91;5152408;27;20161;-61
2021/12/24 01:55:08;;;;;;;45.83;19.27;;;;;;;-6.43;100.00;98336.44;5152087;27;20584;-61
2021/12/24 01:57:36;;;;;;;46.42;18.67;;;;;;;-6.41;100.00;98326.28;5152248;27;20051;-61
2021/12/24 02:00:05;;;;;;;49.45;20.33;;;;;;;-6.40;100.00;98322.56;5152056;27;20057;-62
2021/12/24 02:02:32;;;;;;;50.35;20.98;;;;;;;-6.44;100.00;98323.38;5151783;27;20522;-62
2021/12/24 02:04:59;;;;;;;54.78;22.33;;;;;;;-6.45;100.00;98314.59;5151547;27;20050;-61
2021/12/24 02:07:25;;;;;;;47.88;20.17;;;;;;;-6.50;100.00;98309.25;5151689;27;20060;-62
2021/12/24 02:09:54;;;;;;;48.45;20.17;;;;;;;-6.68;100.00;98297.34;5151725;27;20053;-61
2021/12/24 02:12:22;;;;;;;45.88;18.80;;;;;;;-6.61;100.00;98299.72;5151525;27;20047;-61
2021/12/24 02:14:52;;;;;;;42.85;20.27;;;;;;;-6.69;100.00;98278.97;5151968;27;20043;-62
2021/12/24 02:17:48;;;;;;;49.00;19.77;;;;;;;-6.70;100.00;98280.03;5151507;27;20528;-61
2021/12/24 02:28:37;;;;;;;46.92;20.08;;;;;;;-6.92;100.00;98251.09;5151187;27;19975;-61
2021/12/24 02:31:04;;;;;;;52.60;17.42;;;;;;;-6.92;100.00;98249.22;5151340;27;20099;-61
2021/12/24 02:33:30;;;;;;;47.42;21.13;;;;;;;-6.92;100.00;98243.09;5152987;27;20051;-61
2021/12/24 02:35:57;;;;;;;47.17;19.58;;;;;;;-6.94;100.00;98245.22;5158276;27;20047;-61
2021/12/24 02:38:23;;;;;;;56.38;22.35;;;;;;;-7.00;100.00;98241.78;5158117;27;20057;-61
2021/12/24 02:40:50;;;;;;;54.97;21.65;;;;;;;-6.93;100.00;98236.16;5158317;27;20611;-61
2021/12/24 02:43:20;;;;;;;56.80;23.55;;;;;;;-6.92;100.00;98227.13;5157911;27;20042;-62
2021/12/24 02:45:48;;;;;;;51.03;21.48;;;;;;;-6.81;100.00;98220.66;5158047;27;20088;-61
2021/12/24 02:53:57;;;;;;;52.20;22.00;;;;;;;-6.87;100.00;98235.84;5158138;27;20629;-62
2021/12/24 02:56:26;;;;;;;47.85;18.42;;;;;;;-6.98;100.00;98226.31;5158166;27;20046;-61
2021/12/24 02:58:53;;;;;;;48.78;20.45;;;;;;;-6.88;100.00;98222.81;5157997;27;20046;-61
2021/12/24 03:01:22;;;;;;;53.15;22.15;;;;;;;-6.91;100.00;98226.03;5158055;27;20047;-62
2021/12/24 03:03:50;;;;;;;41.22;17.02;;;;;;;-7.03;100.00;98218.38;5157820;27;20054;-61
2021/12/24 03:06:17;;;;;;;45.83;19.10;;;;;;;-7.02;100.00;98208.50;5157784;27;20050;-61
2021/12/24 03:08:44;;;;;;;50.40;20.33;;;;;;;-7.05;100.00;98211.72;5157778;27;20042;-61
2021/12/24 03:11:10;;;;;;;44.28;19.40;;;;;;;-7.05;100.00;98204.53;5157660;27;20042;-61
2021/12/24 03:13:37;;;;;;;50.28;21.60;;;;;;;-7.05;100.00;98206.41;5157938;27;20102;-61
2021/12/24 03:16:04;;;;;;;52.13;23.30;;;;;;;-7.01;100.00;98197.56;5157721;27;20477;-61
2021/12/24 03:18:33;;;;;;;47.40;20.95;;;;;;;-7.02;100.00;98197.84;5157803;27;20046;-61
2021/12/24 03:21:05;;;;;;;46.75;20.98;;;;;;;-7.02;100.00;98184.53;5157518;27;20081;-62
2021/12/24 03:23:38;;;;;;;49.08;19.25;;;;;;;-7.07;100.00;98190.66;5157702;27;20085;-62
2021/12/24 03:26:07;;;;;;;49.50;20.30;;;;;;;-7.13;100.00;98179.25;5157630;27;20050;-61
2021/12/24 03:28:33;;;;;;;48.25;20.42;;;;;;;-7.15;100.00;98173.41;5157169;27;20157;-61
2021/12/24 03:31:00;;;;;;;58.78;21.42;;;;;;;-7.22;100.00;98172.91;5157644;27;20042;-61
2021/12/24 03:33:26;;;;;;;45.28;18.05;;;;;;;-7.41;100.00;98167.38;5157381;27;20055;-61
2021/12/24 03:35:53;;;;;;;52.80;19.60;;;;;;;-7.43;100.00;98163.38;5157650;27;20046;-61
2021/12/24 03:38:20;;;;;;;52.65;19.80;;;;;;;-7.41;100.00;98163.91;5157547;27;20054;-61
2021/12/24 03:40:46;;;;;;;43.35;18.75;;;;;;;-7.48;100.00;98169.53;5157393;27;20141;-61
2021/12/24 03:43:13;;;;;;;46.15;18.63;;;;;;;-7.53;100.00;98150.94;5157559;27;20561;-61
2021/12/24 03:45:45;;;;;;;57.15;20.92;;;;;;;-7.53;100.00;98142.13;5155699;27;20053;-61
2021/12/24 03:48:18;;;;;;;47.17;17.13;;;;;;;-7.67;100.00;98148.03;5154505;27;20051;-61
2021/12/24 03:50:52;;;;;;;47.55;19.48;;;;;;;-7.66;100.00;98146.97;5153997;27;20530;-61
2021/12/24 03:56:03;;;;;;;60.25;22.25;;;;;;;-7.47;100.00;98138.38;5154208;27;20078;-61
2021/12/24 03:58:30;;;;;;;37.47;16.45;;;;;;;-7.60;100.00;98134.44;5153462;27;20053;-62
2021/12/24 04:00:56;;;;;;;45.58;20.50;;;;;;;-7.61;100.00;98111.56;5153705;27;20107;-61
2021/12/24 04:03:22;;;;;;;29.40;13.23;;;;;;;-7.64;100.00;98114.75;5153633;27;20054;-61
2021/12/24 04:05:49;;;;;;;44.30;18.33;;;;;;;-7.74;100.00;98128.88;5153814;27;20099;-61
2021/12/24 04:08:15;;;;;;;44.03;17.80;;;;;;;-7.72;100.00;98132.09;5153882;27;20413;-61
2021/12/24 04:10:42;;;;;;;48.05;19.90;;;;;;;-7.72;100.00;98123.31;5153624;27;20497;-61
2021/12/24 04:13:09;;;;;;;48.28;19.50;;;;;;;-7.79;100.00;98126.25;5153686;27;20051;-61
2021/12/24 04:15:37;;;;;;;48.53;18.80;;;;;;;-7.75;100.00;98115.88;5153507;27;20056;-61
2021/12/24 04:18:12;;;;;;;43.35;18.33;;;;;;;-7.77;100.00;98110.81;5153555;27;20414;-61
2021/12/24 04:26:07;;;;;;;40.55;17.65;;;;;;;-7.70;100.00;98087.34;5153375;27;20053;-61
2021/12/24 04:28:33;;;;;;;40.05;16.90;;;;;;;-7.65;100.00;98090.00;5152808;27;20524;-61
2021/12/24 04:31:01;;;;;;;38.85;15.40;;;;;;;-7.72;100.00;98086.84;5153244;27;20051;-61
2021/12/24 04:33:32;;;;;;;39.65;16.67;;;;;;;-7.70;100.00;98075.91;5153181;27;20092;-61
2021/12/24 04:36:07;;;;;;;38.13;15.73;;;;;;;-7.68;100.00;98079.13;5152873;27;20433;-61
2021/12/24 04:39:00;;;;;;;41.22;17.40;;;;;;;-7.65;100.00;98074.03;5153395;27;20055;-61
2021/12/24 04:52:49;;;;;;;35.50;13.63;;;;;;;-7.69;100.00;98054.38;5152691;27;20053;-61
2021/12/24 05:03:32;;;;;;;;;;;;;;;-7.58;100.00;98036.47;5151575;27;20091;-62
2021/12/24 05:06:10;;;;;;;12.60;6.72;;;;;;;-7.60;100.00;98020.81;5152270;27;19923;-62
2021/12/24 05:08:42;;;;;;;24.30;11.93;;;;;;;-7.73;100.00;98021.41;5152441;27;20433;-62
2021/12/24 05:11:12;;;;;;;37.33;16.55;;;;;;;-7.74;100.00;98022.44;5152322;27;20043;-62
2021/12/24 05:13:39;;;;;;;37.67;16.85;;;;;;;-7.63;100.00;98013.38;5152125;27;20046;-61
2021/12/24 05:16:17;;;;;;;35.95;16.17;;;;;;;-7.67;100.00;98011.50;5151579;27;20050;-55
2021/12/24 05:19:04;;;;;;;30.27;14.55;;;;;;;-7.63;100.00;98007.22;5152176;27;20191;-53
2021/12/24 05:21:33;;;;;;;25.27;12.27;;;;;;;-7.71;100.00;98008.59;5152258;27;20054;-56
2021/12/24 05:24:00;;;;;;;38.75;15.35;;;;;;;-7.81;100.00;98011.31;5152340;27;20057;-53
2021/12/24 05:26:27;;;;;;;45.03;17.70;;;;;;;-7.75;100.00;97993.47;5152752;27;20134;-51
2021/12/24 05:28:53;;;;;;;37.55;15.60;;;;;;;-7.76;100.00;97997.16;5152192;27;20435;-54
2021/12/24 05:31:20;;;;;;;34.78;14.65;;;;;;;-7.73;100.00;97997.44;5151755;27;20133;-54
2021/12/24 05:33:47;;;;;;;39.92;16.08;;;;;;;-7.72;100.00;97990.25;5152203;27;20043;-53
2021/12/24 05:36:13;;;;;;;37.55;15.05;;;;;;;-7.84;100.00;97987.91;5152186;27;20462;-54
2021/12/24 05:38:39;;;;;;;37.03;16.48;;;;;;;-7.81;100.00;97987.38;5152108;27;20050;-60
2021/12/24 05:41:06;;;;;;;38.92;17.25;;;;;;;-7.77;100.00;97976.97;5151453;27;20055;-62
2021/12/24 05:43:32;;;;;;;38.55;16.88;;;;;;;-7.77;100.00;97969.78;5152252;27;20138;-59
2021/12/24 05:45:59;;;;;;;36.88;15.38;;;;;;;-7.70;100.00;97972.13;5152126;27;20428;-52
2021/12/24 05:48:25;;;;;;;38.20;15.85;;;;;;;-7.38;100.00;97967.13;5151932;27;20047;-56
2021/12/24 05:50:52;;;;;;;40.58;16.02;;;;;;;-6.97;100.00;97958.03;5151615;27;20042;-58
2021/12/24 05:53:18;;;;;;;42.65;16.92;;;;;;;-6.77;100.00;97963.16;5151923;27;20057;-52
2021/12/24 05:55:45;;;;;;;38.17;16.40;;;;;;;-6.53;100.00;97949.06;5151778;27;20133;-57
2021/12/24 05:58:11;;;;;;;41.80;18.48;;;;;;;-6.49;100.00;97942.13;5151665;27;20111;-56
2021/12/24 06:00:39;;;;;;;39.30;16.70;;;;;;;-6.44;100.00;97942.03;5151537;27;20050;-57
2021/12/24 06:03:05;;;;;;;39.03;16.58;;;;;;;-6.64;100.00;97951.06;5150448;27;20099;-63
2021/12/24 06:05:32;;;;;;;37.20;17.17;;;;;;;-6.56;100.00;97949.63;5151345;27;20053;-54
2021/12/24 06:07:59;;;;;;;40.58;16.33;;;;;;;-6.47;100.00;97946.06;5150655;27;20046;-50
2021/12/24 06:10:25;;;;;;;44.83;16.23;;;;;;;-6.24;100.00;97935.69;5151251;27;20083;-60
2021/12/24 06:12:52;;;;;;;51.67;20.48;;;;;;;-6.26;100.00;97927.97;5148968;27;20123;-58
2021/12/24 06:15:23;;;;;;;39.65;18.17;;;;;;;-6.48;100.00;97923.16;5129486;28;20141;-56
2021/12/24 06:17:51;;;;;;;43.13;19.00;;;;;;;-6.44;100.00;97910.06;5129456;28;20059;-55
2021/12/24 06:20:18;;;;;;;39.67;17.08;;;;;;;-6.28;100.00;97908.00;5130797;27;20051;-50
2021/12/24 06:22:44;;;;;;;42.58;18.45;;;;;;;-6.35;100.00;97915.56;5151232;27;20519;-50
2021/12/24 06:25:11;;;;;;;44.78;17.23;;;;;;;-6.39;100.00;97907.34;5151465;27;20050;-49
2021/12/24 06:27:37;;;;;;;41.25;18.42;;;;;;;-6.31;100.00;97903.22;5150166;27;20051;-55
2021/12/24 06:30:06;;;;;;;43.95;18.70;;;;;;;-6.31;100.00;97893.34;5150984;27;20091;-59
2021/12/24 06:32:33;;;;;;;41.92;17.50;;;;;;;-6.20;100.00;97886.00;5150947;27;20082;-51
2021/12/24 06:35:00;;;;;;;44.38;19.13;;;;;;;-6.10;100.00;97877.88;5150392;27;20046;-51
2021/12/24 06:37:26;;;;;;;33.95;16.83;;;;;;;-6.25;100.00;97868.22;5151072;27;20466;-58
2021/12/24 06:39:54;;;;;;;35.75;15.07;;;;;;;-6.16;100.00;97869.16;5148589;27;20481;-55
2021/12/24 06:42:21;;;;;;;38.83;19.15;;;;;;;-6.01;100.00;97870.81;5129321;28;20050;-58
2021/12/24 06:44:48;;;;;;;31.58;14.85;;;;;;;-6.06;100.00;97859.44;5129411;28;20055;-54
2021/12/24 06:47:14;;;;;;;37.40;16.08;;;;;;;-5.80;100.00;97851.81;5131643;27;20146;-54
2021/12/24 06:49:41;;;;;;;34.17;16.85;;;;;;;-5.92;100.00;97842.38;5135551;27;20133;-52
2021/12/24 06:52:07;;;;;;;25.40;13.43;;;;;;;-5.89;100.00;97833.00;5150642;27;20062;-54
2021/12/24 06:54:34;;;;;;;37.08;15.35;;;;;;;-6.04;100.00;97820.69;5151022;27;20137;-56
2021/12/24 06:57:00;;;;;;;31.27;16.10;;;;;;;-5.79;100.00;97819.50;5145856;27;20480;-52
2021/12/24 06:59:28;;;;;;;32.45;14.45;;;;;;;-5.65;100.00;97824.09;5150727;27;20143;-56
2021/12/24 07:01:56;;;;;;;33.75;15.68;;;;;;;-5.46;100.00;97811.50;5144391;27;20051;-53
2021/12/24 07:04:22;;;;;;;29.40;13.60;;;;;;;-5.45;100.00;97789.84;5129787;28;20498;-60
2021/12/24 07:06:48;;;;;;;28.52;13.20;;;;;;;-5.50;100.00;97760.56;5129849;28;20047;-53
2021/12/24 07:09:15;;;;;;;31.73;14.32;;;;;;;-5.49;100.00;97751.44;5129982;28;20047;-54
2021/12/24 07:11:43;;;;;;;32.58;15.80;;;;;;;-5.54;100.00;97743.53;5129943;28;20055;-53
2021/12/24 07:14:09;;;;;;;39.05;15.70;;;;;;;-5.50;100.00;97711.69;5129780;28;20490;-54
2021/12/24 07:16:36;;;;;;;25.58;12.90;;;;;;;-5.48;100.00;97698.84;5123054;28;20047;-51
2021/12/24 07:19:03;;;;;;;28.15;13.75;;;;;;;-5.48;100.00;97693.50;5109154;28;20074;-51
2021/12/24 07:21:29;;;;;;;36.05;16.65;;;;;;;-5.50;100.00;97680.44;5112427;28;20047;-53
2021/12/24 07:23:55;;;;;;;32.90;14.50;;;;;;;-5.52;100.00;97671.94;5112606;28;20048;-53
2021/12/24 07:26:22;;;;;;;31.95;14.45;;;;;;;-5.56;100.00;97654.13;5113244;28;20142;-55
2021/12/24 07:28:48;;;;;;;36.58;14.60;;;;;;;-5.56;100.00;97652.25;5112433;28;20055;-54
2021/12/24 07:31:15;;;;;;;33.08;14.88;;;;;;;-5.56;100.00;97641.56;5128729;28;20049;-55
2021/12/24 07:33:42;;;;;;;31.23;15.35;;;;;;;-5.53;100.00;97643.66;5115201;28;20433;-56
2021/12/24 07:36:08;;;;;;;30.90;15.48;;;;;;;-5.39;100.00;97642.84;5112420;28;20074;-52
2021/12/24 07:38:34;;;;;;;31.67;14.60;;;;;;;-5.59;100.00;97614.69;5119804;28;20072;-52
2021/12/24 07:41:01;;;;;;;27.42;13.15;;;;;;;-5.44;100.00;97633.84;5133314;28;20062;-56
2021/12/24 07:43:27;;;;;;;32.20;15.30;;;;;;;-5.29;100.00;97634.63;5132947;28;20047;-56
2021/12/24 07:45:55;;;;;;;33.13;15.43;;;;;;;-5.53;100.00;97608.13;5133260;28;20047;-55
2021/12/24 07:48:27;;;;;;;31.60;15.13;;;;;;;-5.71;100.00;97588.47;5133002;28;20096;-55
2021/12/24 07:53:41;;;;;;;27.30;14.00;;;;;;;-5.85;100.00;97604.47;5133108;28;20124;-56
2021/12/24 07:56:07;;;;;;;31.92;15.20;;;;;;;-5.71;100.00;97620.50;5128295;28;20212;-55
2021/12/24 07:58:33;;;;;;;26.08;12.77;;;;;;;-5.47;100.00;97638.97;5121547;27;20096;-50
2021/12/24 08:01:00;;;;;;;29.77;14.65;;;;;;;-5.49;100.00;97622.47;5130940;28;20521;-60
2021/12/24 08:03:27;;;;;;;27.13;14.52;;;;;;;-5.54;100.00;97602.00;5132715;28;20150;-57
2021/12/24 08:05:53;;;;;;;30.15;14.65;;;;;;;-5.56;100.00;97604.19;5132762;28;20043;-57
2021/12/24 08:08:20;;;;;;;36.33;15.05;;;;;;;-5.83;100.00;97574.81;5132444;28;20150;-56
2021/12/24 08:10:46;;;;;;;29.55;13.50;;;;;;;-5.86;100.00;97594.91;5132775;27;20410;-52
2021/12/24 08:13:13;;;;;;;37.28;17.38;;;;;;;-5.89;100.00;97600.81;5132146;28;20043;-52
2021/12/24 08:15:39;;;;;;;32.08;14.63;;;;;;;-5.86;100.00;97602.91;5132668;28;20069;-54
2021/12/24 08:18:05;;;;;;;29.23;14.10;;;;;;;-5.94;100.00;97603.59;5132464;28;20055;-55
2021/12/24 08:20:31;;;;;;;30.08;15.48;;;;;;;-5.89;100.00;97611.50;5132371;28;20055;-53
2021/12/24 08:22:58;;;;;;;34.05;14.32;;;;;;;-5.74;100.00;97618.41;5132461;28;20047;-62
2021/12/24 08:25:25;;;;;;;34.80;16.65;;;;;;;-5.19;100.00;97647.78;5131960;28;20043;-62
2021/12/24 08:27:52;;;;;;;33.22;15.90;;;;;;;-4.59;100.00;97660.91;5130536;28;20065;-63
2021/12/24 08:30:18;;;;;;;31.98;15.68;;;;;;;-4.57;100.00;97599.88;5132117;28;20069;-63
2021/12/24 08:32:45;;;;;;;32.42;14.25;;;;;;;-4.63;100.00;97547.63;5131406;27;20145;-63
2021/12/24 08:35:14;;;;;;;28.38;12.68;;;;;;;-4.72;100.00;97511.22;5131903;28;20166;-63
2021/12/24 08:37:42;;;;;;;29.98;14.43;;;;;;;-4.68;100.00;97472.88;5131920;27;20496;-63
2021/12/24 08:40:13;;;;;;;31.63;15.40;;;;;;;-4.38;100.00;97468.59;5111029;28;20047;-62
2021/12/24 08:42:40;;;;;;;32.17;13.80;;;;;;;-4.17;100.00;97430.59;5112777;28;20058;-63
2021/12/24 08:45:07;;;;;;;31.98;13.60;;;;;;;-4.43;100.00;97367.13;5111531;28;20059;-63
2021/12/24 08:47:34;;;;;;;27.95;12.25;;;;;;;-4.51;100.00;97336.56;5111379;28;20555;-63
2021/12/24 08:50:00;;;;;;;26.35;14.23;;;;;;;-4.53;100.00;97327.28;5111220;28;20094;-63
2021/12/24 08:52:26;;;;;;;29.75;13.80;;;;;;;-4.39;100.00;97330.63;5110738;28;20047;-62
2021/12/24 08:54:53;;;;;;;27.60;12.50;;;;;;;-4.40;100.00;97301.47;5110993;28;20055;-63
2021/12/24 08:57:19;;;;;;;32.50;14.10;;;;;;;-4.70;100.00;97265.72;5110031;28;20051;-63
2021/12/24 08:59:46;;;;;;;25.85;11.23;;;;;;;-4.70;100.00;97269.19;5111132;28;20574;-62
2021/12/24 09:02:12;;;;;;;29.85;14.27;;;;;;;-4.66;100.00;97256.78;5111096;28;20096;-63
2021/12/24 09:04:39;;;;;;;29.30;14.52;;;;;;;-4.55;100.00;97251.91;5111083;28;20477;-63
2021/12/24 09:07:05;;;;;;;30.48;15.23;;;;;;;-4.39;100.00;97255.72;5111053;28;20188;-64
2021/12/24 09:09:32;;;;;;;34.90;15.23;;;;;;;-4.32;100.00;97237.31;5110998;28;20048;-63
2021/12/24 09:11:58;;;;;;;30.85;16.00;;;;;;;-4.18;100.00;97221.09;5110816;28;20145;-64
2021/12/24 09:14:25;;;;;;;24.60;14.13;;;;;;;-4.16;100.00;97178.75;5111055;28;20043;-64
2021/12/24 09:16:53;;;;;;;30.77;14.73;;;;;;;-4.17;100.00;97154.97;5110771;28;20051;-63
2021/12/24 09:19:24;;;;;;;33.42;14.90;;;;;;;-4.31;100.00;97118.47;5110768;28;20048;-63
2021/12/24 09:21:50;;;;;;;30.00;15.05;;;;;;;-4.15;100.00;97116.09;5110706;28;20051;-64
2021/12/24 09:24:19;;;;;;;32.08;14.95;;;;;;;-3.94;100.00;97108.16;5111006;27;20055;-63
2021/12/24 09:26:45;;;;;;;28.95;14.30;;;;;;;-4.00;100.00;97071.94;5098187;28;20061;-63
2021/12/24 09:29:11;;;;;;;23.67;12.95;;;;;;;-4.32;100.00;97019.84;5130490;27;20090;-63
2021/12/24 09:31:38;;;;;;;32.85;15.57;;;;;;;-4.48;100.00;97027.59;5131130;27;20055;-63
2021/12/24 09:34:05;;;;;;;31.33;13.68;;;;;;;-4.35;100.00;97053.34;5131614;27;20050;-63
2021/12/24 09:36:32;;;;;;;27.20;13.52;;;;;;;-4.24;100.00;97064.50;5131284;28;20047;-63
2021/12/24 09:39:02;;;;;;;23.48;12.50;;;;;;;-4.28;100.00;97050.97;5131941;27;20058;-63
2021/12/24 09:41:29;;;;;;;27.58;13.48;;;;;;;-4.24;100.00;97032.38;5131054;28;20509;-63
2021/12/24 09:43:58;;;;;;;27.77;14.32;;;;;;;-4.07;100.00;97034.19;5130949;27;20459;-63
2021/12/24 09:46:25;;;;;;;27.73;13.68;;;;;;;-4.06;100.00;97007.13;5130796;28;20054;-63
2021/12/24 09:48:51;;;;;;;32.22;13.23;;;;;;;-4.00;100.00;96982.84;5145331;27;20423;-63
2021/12/24 09:51:19;;;;;;;30.70;14.90;;;;;;;-3.81;100.00;96970.63;5151674;27;20138;-63
2021/12/24 09:53:46;;;;;;;22.38;11.48;;;;;;;-3.93;100.00;96921.56;5151550;27;20067;-64
2021/12/24 09:56:12;;;;;;;28.38;14.77;;;;;;;-4.03;100.00;96910.16;5151201;27;20062;-63
2021/12/24 09:58:38;;;;;;;26.10;13.35;;;;;;;-3.94;100.00;96920.00;5151652;27;20061;-63
2021/12/24 10:01:04;;;;;;;27.95;15.73;;;;;;;-4.04;100.00;96889.81;5151356;27;20405;-63
2021/12/24 10:03:33;;;;;;;31.90;14.77;;;;;;;-3.89;100.00;96904.53;5151710;27;20130;-63
2021/12/24 10:06:00;;;;;;;25.52;14.23;;;;;;;-4.04;100.00;96868.41;5151578;27;20142;-64
2021/12/24 10:08:28;;;;;;;27.35;14.05;;;;;;;-4.09;100.00;96865.94;5151265;27;20107;-63
2021/12/24 10:11:01;;;;;;;25.38;13.27;;;;;;;-4.07;100.00;96871.75;5141170;27;20047;-64
2021/12/24 10:13:34;;;;;;;29.38;15.27;;;;;;;-4.06;100.00;96900.09;5130606;28;20540;-64
2021/12/24 10:16:02;;;;;;;33.40;15.45;;;;;;;-3.89;100.00;96909.91;5130681;28;20055;-64
2021/12/24 10:18:34;;;;;;;24.88;14.15;;;;;;;-3.66;100.00;96902.31;5130684;28;20133;-64
2021/12/24 10:21:03;;;;;;;30.70;14.15;;;;;;;-3.64;100.00;96872.53;5130302;28;20050;-65
2021/12/24 10:23:51;;;;;;;28.00;13.90;;;;;;;-3.79;100.00;96874.69;5132002;27;20053;-65
2021/12/24 10:26:21;;;;;;;30.10;13.80;;;;;;;-3.97;100.00;96877.81;5130339;28;20051;-64
2021/12/24 10:29:00;;;;;;;23.10;13.50;;;;;;;-4.09;100.00;96916.78;5129678;28;20055;-63
2021/12/24 10:31:29;;;;;;;27.65;13.18;;;;;;;-4.13;100.00;96963.22;5129975;27;20043;-64
2021/12/24 10:34:19;;;;;;;28.10;13.45;;;;;;;-3.79;100.00;97023.84;5138648;27;20051;-65
2021/12/24 10:37:14;;;;;;;30.20;13.82;;;;;;;-3.76;100.00;97046.53;5144283;27;20069;-66
2021/12/24 10:39:45;;;;;;;30.45;14.60;;;;;;;-3.65;100.00;97032.44;5148308;27;20133;-62
2021/12/24 10:42:15;;;;;;;31.92;14.48;;;;;;;-3.56;100.00;97019.00;5150646;27;20516;-62
2021/12/24 10:44:43;;;;;;;25.17;13.73;;;;;;;-3.71;100.00;96979.38;5150921;27;20046;-62
2021/12/24 10:47:13;;;;;;;21.77;11.32;;;;;;;-3.60;100.00;96969.84;5150606;27;20428;-62
2021/12/24 10:55:13;;;;;;;26.58;12.95;;;;;;;-3.46;100.00;96924.09;5131782;27;20515;-62
2021/12/24 10:57:42;;;;;;;25.30;13.57;;;;;;;-3.53;100.00;96903.19;5133786;27;20043;-70
2021/12/24 11:00:16;;;;;;;24.38;12.13;;;;;;;-3.35;100.00;96898.44;5133436;28;20047;-65
2021/12/24 11:02:43;;;;;;;25.05;13.55;;;;;;;-3.50;100.00;96866.91;5133287;27;20047;-70
2021/12/24 11:05:27;;;;;;;25.90;13.05;;;;;;;-3.61;100.00;96848.56;5137253;27;20051;-65
2021/12/24 11:07:54;;;;;;;24.33;12.52;;;;;;;-3.77;100.00;96842.22;5138957;27;20051;-67
2021/12/24 11:10:23;;;;;;;26.33;13.27;;;;;;;-3.68;100.00;96887.69;5140793;27;20051;-58
2021/12/24 11:12:54;;;;;;;28.95;14.75;;;;;;;-3.70;100.00;96896.03;5154170;27;20130;-61
2021/12/24 11:15:30;;;;;;;24.98;12.68;;;;;;;-3.44;100.00;96914.59;5150544;27;20058;-61
2021/12/24 11:17:59;;;;;;;26.25;13.88;;;;;;;-3.37;100.00;96889.94;5154041;27;20834;-60
2021/12/24 11:20:27;;;;;;;29.63;14.00;;;;;;;-3.33;100.00;96854.13;5152433;27;20052;-66
2021/12/24 11:23:04;;;;;;;27.58;13.43;;;;;;;-3.30;100.00;96836.59;5150417;27;20078;-70
2021/12/24 11:25:33;;;;;;;25.33;13.65;;;;;;;-3.28;100.00;96826.34;5153895;27;20038;-66
2021/12/24 11:28:00;;;;;;;25.80;14.20;;;;;;;-3.22;100.00;96818.88;5139470;27;20470;-65
2021/12/24 11:30:28;;;;;;;31.30;15.18;;;;;;;-3.19;100.00;96808.28;5139236;27;20042;-60
2021/12/24 11:32:55;;;;;;;33.75;17.30;;;;;;;-3.57;100.00;96755.72;5143873;27;20095;-63
2021/12/24 11:35:22;;;;;;;27.85;15.13;;;;;;;-3.57;100.00;96784.41;5133614;27;20528;-62
2021/12/24 11:37:49;;;;;;;29.08;13.50;;;;;;;-3.84;100.00;96780.41;5133642;27;20520;-62
2021/12/24 11:40:18;;;;;;;25.52;11.82;;;;;;;-3.92;100.00;96808.84;5133377;27;20519;-63
2021/12/24 11:42:50;;;;;;;30.55;13.00;;;;;;;-3.71;100.00;96858.91;5133328;27;20043;-63
2021/12/24 11:45:17;;;;;;;25.77;12.73;;;;;;;-4.10;100.00;96831.47;5142281;27;20501;-62
2021/12/24 11:47:44;;;;;;;29.98;14.32;;;;;;;-4.59;100.00;96823.94;5138841;27;20082;-63
2021/12/24 11:50:10;;;;;;;24.95;13.43;;;;;;;-4.77;100.00;96878.56;5133440;28;20051;-63
2021/12/24 11:52:37;;;;;;;22.52;12.40;;;;;;;-5.11;100.00;96956.94;5133178;28;20512;-63
2021/12/24 11:55:04;;;;;;;23.40;13.05;;;;;;;-5.05;100.00;97047.31;5132691;27;20099;-62
2021/12/24 11:57:31;;;;;;;24.75;12.57;;;;;;;-5.14;100.00;97089.25;5132615;27;20048;-63
2021/12/24 12:00:06;;;;;;;27.67;14.20;;;;;;;-5.40;100.00;97117.81;5133293;27;20051;-63
2021/12/24 12:02:40;;;;;;;25.55;11.02;;;;;;;-5.51;100.00;97168.06;5148626;27;20082;-63
2021/12/24 12:05:13;;;;;;;31.80;11.75;;;;;;;-5.56;100.00;97195.69;5153871;27;20390;-63
2021/12/24 12:07:39;;;;;;;27.73;13.25;;;;;;;-5.55;100.00;97217.84;5152003;27;20137;-63
2021/12/24 12:10:07;;;;;;;25.38;12.30;;;;;;;-5.53;100.00;97251.16;5153489;27;20089;-62
2021/12/24 12:12:35;;;;;;;22.35;9.80;;;;;;;-5.61;100.00;97275.91;5153699;27;20133;-63
2021/12/24 12:15:26;;;;;;;31.02;12.05;;;;;;;-5.66;100.00;97281.38;5153123;27;20078;-63
2021/12/24 12:17:54;;;;;;;24.55;11.27;;;;;;;-5.77;100.00;97298.72;5133065;27;20577;-62
2021/12/24 12:20:45;;;;;;;27.20;12.57;;;;;;;-5.67;100.00;97315.28;5152919;27;20061;-63
2021/12/24 12:23:45;;;;;;;23.42;10.35;;;;;;;-5.51;100.00;97336.28;5152914;27;20047;-62
2021/12/24 12:26:33;;;;;;;26.58;12.93;;;;;;;-5.56;100.00;97323.06;5153094;27;20057;-63
2021/12/24 12:29:24;;;;;;;25.77;11.25;;;;;;;-5.68;100.00;97311.03;5152737;27;20574;-63